createdAt,value
2023-05-08T00:01:58.528Z,9.20
2023-05-08T00:04:25.454Z,10.27
2023-05-08T00:06:52.931Z,11.77
2023-05-08T00:09:21.029Z,11.82
2023-05-08T00:11:47.726Z,12.20
2023-05-08T00:14:14.679Z,13.32
2023-05-08T00:16:41.203Z,13.07
2023-05-08T00:19:08.692Z,11.15
2023-05-08T00:21:35.143Z,12.32
2023-05-08T00:24:01.816Z,11.27
2023-05-08T00:26:28.209Z,11.73
2023-05-08T00:28:54.653Z,12.55
2023-05-08T00:31:21.064Z,10.98
2023-05-08T00:33:47.645Z,14.48
2023-05-08T00:36:15.767Z,11.73
2023-05-08T00:38:42.339Z,13.68
2023-05-08T00:41:09.017Z,16.75
2023-05-08T00:43:37.426Z,14.85
2023-05-08T00:46:04.037Z,16.23
2023-05-08T00:48:34.885Z,15.68
2023-05-08T00:51:04.412Z,17.50
2023-05-08T00:53:33.512Z,15.15
2023-05-08T00:56:00.145Z,17.05
2023-05-08T00:58:27.703Z,15.90
2023-05-08T01:00:56.095Z,14.52
2023-05-08T01:03:23.769Z,15.48
2023-05-08T01:05:50.518Z,14.70
2023-05-08T01:08:17.323Z,15.45
2023-05-08T01:11:08.120Z,15.95
2023-05-08T01:13:43.604Z,16.35
2023-05-08T01:16:16.893Z,15.88
2023-05-08T01:24:31.401Z,14.18
2023-05-08T01:27:25.059Z,17.40
2023-05-08T01:30:13.780Z,16.75
2023-05-08T01:32:43.722Z,18.30
2023-05-08T01:35:27.991Z,17.83
2023-05-08T01:37:59.908Z,19.45
2023-05-08T01:40:41.456Z,20.25
2023-05-08T01:43:18.841Z,19.17
2023-05-08T01:45:48.228Z,20.75
2023-05-08T01:48:22.511Z,19.75
2023-05-08T01:50:55.202Z,19.08
2023-05-08T01:53:27.070Z,19.60
2023-05-08T01:55:57.919Z,19.63
2023-05-08T01:58:25.964Z,19.73
2023-05-08T02:00:53.649Z,19.00
2023-05-08T02:03:23.354Z,19.15
2023-05-08T02:05:52.072Z,19.55
2023-05-08T02:08:22.533Z,21.75
2023-05-08T02:10:51.613Z,19.13
2023-05-08T02:13:21.494Z,20.50
2023-05-08T02:15:51.253Z,19.83
2023-05-08T02:18:22.088Z,21.73
2023-05-08T02:20:51.450Z,21.73
2023-05-08T02:23:19.590Z,20.20
2023-05-08T02:25:47.192Z,22.35
2023-05-08T02:28:16.040Z,19.50
2023-05-08T02:30:44.013Z,22.50
2023-05-08T02:33:12.776Z,21.73
2023-05-08T02:35:42.098Z,21.25
2023-05-08T02:38:10.849Z,22.23
2023-05-08T02:40:41.505Z,21.90
2023-05-08T02:43:08.296Z,23.17
2023-05-08T02:45:48.492Z,21.20
2023-05-08T02:48:22.803Z,21.42
2023-05-08T02:51:00.026Z,25.27
2023-05-08T02:53:37.464Z,21.33
2023-05-08T02:56:18.777Z,21.08
2023-05-08T02:58:53.003Z,20.92
2023-05-08T03:01:34.622Z,22.90
2023-05-08T03:04:10.802Z,23.58
2023-05-08T03:06:42.696Z,22.98
2023-05-08T03:09:17.229Z,22.17
2023-05-08T03:11:47.387Z,22.90
2023-05-08T03:14:19.472Z,24.73
2023-05-08T03:16:47.625Z,23.23
2023-05-08T03:19:24.881Z,21.20
2023-05-08T03:21:53.955Z,23.95
2023-05-08T03:24:23.903Z,23.33
2023-05-08T03:26:51.397Z,22.40
2023-05-08T03:29:18.872Z,23.52
2023-05-08T03:31:47.379Z,23.85
2023-05-08T03:34:15.887Z,22.20
2023-05-08T03:36:42.679Z,24.10
2023-05-08T03:39:09.449Z,24.85
2023-05-08T03:41:36.585Z,24.48
2023-05-08T03:44:04.121Z,22.52
2023-05-08T03:46:35.700Z,23.95
2023-05-08T03:49:04.607Z,23.63
2023-05-08T03:51:32.357Z,23.35
2023-05-08T03:53:59.114Z,24.42
2023-05-08T03:56:26.217Z,20.42
2023-05-08T03:59:00.779Z,22.80
2023-05-08T04:01:37.250Z,20.92
2023-05-08T04:04:33.321Z,21.35
2023-05-08T04:07:08.516Z,23.13
2023-05-08T04:10:04.584Z,22.70
2023-05-08T04:12:54.546Z,21.17
2023-05-08T04:15:25.874Z,22.67
2023-05-08T04:17:59.695Z,21.20
2023-05-08T04:20:29.175Z,21.73
2023-05-08T04:22:58.402Z,21.73
2023-05-08T04:25:26.338Z,20.92
2023-05-08T04:27:53.173Z,20.60
2023-05-08T04:30:21.410Z,22.92
2023-05-08T04:32:49.399Z,21.60
2023-05-08T04:35:16.706Z,21.40
2023-05-08T04:37:44.535Z,22.00
2023-05-08T04:40:11.759Z,20.60
2023-05-08T04:42:42.776Z,20.33
2023-05-08T04:45:10.317Z,20.15
2023-05-08T04:47:37.095Z,18.58
2023-05-08T04:50:03.740Z,19.75
2023-05-08T04:52:32.170Z,17.33
2023-05-08T04:54:58.648Z,17.98
2023-05-08T04:57:25.149Z,15.93
2023-05-08T04:59:51.666Z,18.40
2023-05-08T05:02:18.434Z,17.95
2023-05-08T05:04:46.666Z,17.45
2023-05-08T05:07:13.940Z,18.92
2023-05-08T05:09:40.480Z,15.48
2023-05-08T05:12:07.910Z,16.77
2023-05-08T05:14:35.341Z,15.55
2023-05-08T05:17:01.934Z,14.80
2023-05-08T05:19:28.825Z,14.15
2023-05-08T05:21:55.924Z,15.27
2023-05-08T05:24:22.439Z,13.20
2023-05-08T05:26:49.290Z,16.15
2023-05-08T05:29:15.936Z,13.18
2023-05-08T05:31:42.760Z,11.10
2023-05-08T05:34:09.802Z,11.70
2023-05-08T05:36:36.458Z,13.35
2023-05-08T05:39:03.336Z,10.95
2023-05-08T05:41:30.578Z,13.23
2023-05-08T05:43:57.547Z,11.20
2023-05-08T05:46:30.966Z,10.13
2023-05-08T05:48:58.822Z,10.52
2023-05-08T05:51:27.499Z,10.63
2023-05-08T05:53:54.941Z,10.63
2023-05-08T05:56:23.316Z,10.90
2023-05-08T05:58:49.779Z,10.85
2023-05-08T06:01:16.439Z,12.23
2023-05-08T06:03:43.192Z,10.63
2023-05-08T06:06:10.120Z,12.75
2023-05-08T06:08:36.573Z,9.50
2023-05-08T06:11:03.535Z,13.93
2023-05-08T06:13:30.055Z,12.63
2023-05-08T06:15:57.067Z,12.75
2023-05-08T06:18:24.594Z,14.48
2023-05-08T06:20:56.797Z,13.68
2023-05-08T06:23:23.563Z,12.85
2023-05-08T06:25:50.096Z,10.23
2023-05-08T06:28:16.844Z,11.52
2023-05-08T06:30:43.564Z,12.77
2023-05-08T06:33:11.105Z,13.20
2023-05-08T06:35:37.525Z,11.27
2023-05-08T06:38:03.934Z,11.13
2023-05-08T06:40:30.581Z,11.25
2023-05-08T06:42:57.113Z,10.90
2023-05-08T06:45:23.503Z,11.02
2023-05-08T06:47:50.403Z,12.05
2023-05-08T06:50:16.860Z,13.40
2023-05-08T06:52:43.707Z,12.07
2023-05-08T06:55:10.342Z,12.13
2023-05-08T06:57:36.795Z,16.08
2023-05-08T07:00:03.674Z,15.35
2023-05-08T07:02:30.227Z,14.60
2023-05-08T07:04:57.161Z,15.02
2023-05-08T07:07:23.707Z,14.25
2023-05-08T07:09:50.208Z,18.33
2023-05-08T07:12:16.667Z,18.80
2023-05-08T07:14:43.513Z,16.20
2023-05-08T07:17:09.910Z,16.45
2023-05-08T07:19:36.752Z,17.98
2023-05-08T07:22:03.612Z,13.10
2023-05-08T07:24:30.477Z,15.55
2023-05-08T07:26:57.122Z,13.90
2023-05-08T07:29:23.695Z,13.95
2023-05-08T07:31:51.926Z,16.55
2023-05-08T07:34:18.460Z,14.80
2023-05-08T07:36:45.372Z,14.30
2023-05-08T07:39:14.795Z,14.18
2023-05-08T07:41:41.347Z,15.63
2023-05-08T07:44:08.296Z,14.38
2023-05-08T07:46:34.931Z,22.17
2023-05-08T07:49:01.553Z,19.25
2023-05-08T07:51:27.972Z,18.65
2023-05-08T07:53:55.060Z,12.80
2023-05-08T07:56:24.928Z,11.65
2023-05-08T07:58:51.614Z,16.85
2023-05-08T08:01:18.290Z,11.55
2023-05-08T08:03:46.163Z,14.00
2023-05-08T08:06:12.795Z,12.63
2023-05-08T08:08:39.262Z,12.30
2023-05-08T08:11:06.724Z,12.57
2023-05-08T08:13:33.269Z,17.05
2023-05-08T08:16:01.132Z,12.00
2023-05-08T08:18:27.589Z,9.68
2023-05-08T08:20:54.017Z,9.70
2023-05-08T08:23:20.425Z,11.07
2023-05-08T08:25:47.052Z,12.38
2023-05-08T08:28:13.470Z,13.13
2023-05-08T08:30:39.853Z,12.07
2023-05-08T08:33:06.433Z,10.32
2023-05-08T08:35:33.307Z,13.07
2023-05-08T08:37:59.754Z,13.57
2023-05-08T08:40:26.670Z,12.93
2023-05-08T08:42:54.952Z,14.55
2023-05-08T08:45:21.401Z,15.65
2023-05-08T08:47:48.432Z,16.02
2023-05-08T08:50:16.289Z,14.55
2023-05-08T08:53:14.085Z,13.73
2023-05-08T08:55:45.841Z,11.40
2023-05-08T08:58:23.065Z,10.23
2023-05-08T09:00:50.420Z,9.57
2023-05-08T09:03:17.216Z,11.70
2023-05-08T09:05:45.349Z,11.70
2023-05-08T09:08:13.010Z,9.60
2023-05-08T09:10:39.603Z,9.57
2023-05-08T09:13:06.216Z,10.15
2023-05-08T09:15:33.474Z,10.68
2023-05-08T09:18:02.583Z,9.23
2023-05-08T09:20:29.819Z,10.88
2023-05-08T09:22:57.764Z,8.90
2023-05-08T09:25:24.411Z,9.30
2023-05-08T09:27:50.960Z,7.05
2023-05-08T09:30:17.402Z,8.90
2023-05-08T09:32:45.419Z,10.90
2023-05-08T09:35:12.972Z,9.15
2023-05-08T09:37:41.680Z,7.38
2023-05-08T09:40:22.335Z,6.78
2023-05-08T09:42:50.130Z,6.72
2023-05-08T09:45:28.092Z,6.25
2023-05-08T09:47:54.807Z,6.07
2023-05-08T09:50:21.517Z,5.50
2023-05-08T09:52:50.621Z,5.60
2023-05-08T09:55:18.003Z,6.72
2023-05-08T09:57:58.810Z,5.82
2023-05-08T10:00:30.453Z,10.05
2023-05-08T10:03:03.241Z,6.40
2023-05-08T10:05:32.578Z,6.97
2023-05-08T10:08:20.630Z,6.55
2023-05-08T10:10:47.258Z,6.68
2023-05-08T10:13:14.371Z,5.50
2023-05-08T10:15:43.095Z,7.15
2023-05-08T10:18:10.934Z,8.00
2023-05-08T10:20:44.215Z,11.50
2023-05-08T10:25:45.483Z,9.93
2023-05-08T10:28:28.986Z,9.90
2023-05-08T10:33:31.096Z,7.38
2023-05-08T10:35:59.281Z,6.07
2023-05-08T10:38:26.112Z,7.40
2023-05-08T10:40:57.828Z,8.05
2023-05-08T10:43:29.232Z,5.05
2023-05-08T10:45:57.288Z,4.95
2023-05-08T10:48:34.030Z,5.72
2023-05-08T10:51:16.798Z,6.75
2023-05-08T10:53:53.623Z,10.25
2023-05-08T10:56:27.168Z,12.82
2023-05-08T10:58:57.983Z,9.27
2023-05-08T11:01:25.644Z,7.47
2023-05-08T11:03:52.857Z,6.55
2023-05-08T11:06:43.271Z,3.83
2023-05-08T11:09:15.076Z,2.78
2023-05-08T11:11:49.810Z,3.55
2023-05-08T11:14:17.571Z,4.53
2023-05-08T11:17:01.969Z,7.68
2023-05-08T11:19:30.586Z,5.78
2023-05-08T11:22:20.435Z,6.13
2023-05-08T11:25:10.780Z,7.38
2023-05-08T11:27:40.371Z,5.00
2023-05-08T11:30:26.569Z,4.65
2023-05-08T11:32:58.942Z,8.02
2023-05-08T11:36:10.339Z,5.85
2023-05-08T11:38:38.095Z,6.13
2023-05-08T11:41:09.625Z,5.47
2023-05-08T11:44:14.975Z,5.35
2023-05-08T11:46:48.181Z,5.75
2023-05-08T11:49:21.482Z,4.00
2023-05-08T11:51:55.103Z,5.00
2023-05-08T11:54:22.944Z,5.95
2023-05-08T11:56:50.713Z,5.47
2023-05-08T11:59:18.633Z,2.70
2023-05-08T12:01:53.557Z,3.60
2023-05-08T12:04:27.010Z,5.57
2023-05-08T12:06:57.602Z,5.30
2023-05-08T12:09:24.368Z,5.65
2023-05-08T12:11:56.899Z,4.50
2023-05-08T12:14:23.367Z,6.10
2023-05-08T12:16:51.290Z,3.67
2023-05-08T12:19:17.713Z,4.85
2023-05-08T12:21:51.369Z,3.83
2023-05-08T12:24:23.196Z,2.97
2023-05-08T12:26:53.202Z,6.10
2023-05-08T12:29:19.714Z,4.75
2023-05-08T12:31:47.324Z,14.48
2023-05-08T12:34:14.204Z,14.38
2023-05-08T12:36:40.673Z,13.57
2023-05-08T12:39:15.050Z,11.57
2023-05-08T12:41:51.868Z,7.13
2023-05-08T12:44:25.908Z,5.97
2023-05-08T12:46:53.812Z,5.13
2023-05-08T12:49:28.741Z,5.47
2023-05-08T12:52:09.477Z,7.93
2023-05-08T12:54:38.148Z,9.80
2023-05-08T12:57:11.603Z,6.45
2023-05-08T12:59:38.916Z,6.38
2023-05-08T13:02:12.846Z,7.13
2023-05-08T13:04:39.541Z,4.82
2023-05-08T13:07:06.032Z,8.23
2023-05-08T13:09:32.625Z,7.03
2023-05-08T13:11:59.114Z,7.38
2023-05-08T13:14:25.554Z,5.53
2023-05-08T13:16:52.094Z,3.97
2023-05-08T13:19:18.984Z,7.78
2023-05-08T13:21:49.301Z,4.63
2023-05-08T13:24:15.966Z,3.28
2023-05-08T13:26:42.445Z,3.97
2023-05-08T13:29:08.904Z,3.55
2023-05-08T13:31:35.821Z,5.70
2023-05-08T13:34:02.592Z,5.30
2023-05-08T13:36:29.019Z,4.85
2023-05-08T13:38:57.132Z,5.53
2023-05-08T13:41:23.563Z,2.92
2023-05-08T13:43:49.937Z,3.78
2023-05-08T13:46:16.409Z,4.32
2023-05-08T13:48:42.827Z,2.55
2023-05-08T13:51:09.266Z,3.22
2023-05-08T13:53:35.669Z,3.67
2023-05-08T13:56:02.662Z,2.75
2023-05-08T13:58:29.054Z,2.50
2023-05-08T14:00:55.472Z,4.28
2023-05-08T14:03:23.053Z,2.80
2023-05-08T14:05:49.523Z,5.82
2023-05-08T14:08:16.187Z,4.10
2023-05-08T14:10:42.566Z,3.72
2023-05-08T14:13:09.000Z,5.75
2023-05-08T14:15:37.892Z,9.80
2023-05-08T14:18:04.583Z,3.00
2023-05-08T14:20:31.079Z,9.52
2023-05-08T14:23:00.111Z,5.72
2023-05-08T14:25:26.963Z,5.45
2023-05-08T14:27:53.399Z,4.18
2023-05-08T14:30:19.781Z,3.65
2023-05-08T14:32:46.323Z,5.05
2023-05-08T14:35:14.066Z,3.65
2023-05-08T14:37:41.018Z,5.82
2023-05-08T14:40:08.185Z,2.88
2023-05-08T14:42:34.997Z,5.60
2023-05-08T14:45:01.538Z,3.88
2023-05-08T14:47:28.065Z,4.47
2023-05-08T14:49:54.606Z,3.42
2023-05-08T14:52:21.010Z,3.53
2023-05-08T14:54:52.872Z,3.90
2023-05-08T14:57:20.519Z,3.25
2023-05-08T14:59:54.623Z,2.95
2023-05-08T15:02:23.725Z,4.43
2023-05-08T15:04:50.461Z,3.20
2023-05-08T15:07:16.904Z,7.68
2023-05-08T15:09:43.481Z,5.15
2023-05-08T15:12:09.871Z,5.70
2023-05-08T15:14:36.352Z,3.40
2023-05-08T15:17:02.872Z,4.15
2023-05-08T15:19:29.228Z,5.28
2023-05-08T15:21:55.595Z,4.03
2023-05-08T15:24:21.968Z,6.50
2023-05-08T15:26:48.377Z,5.93
2023-05-08T15:29:14.809Z,5.15
2023-05-08T15:31:41.434Z,5.72
2023-05-08T15:34:08.260Z,4.10
2023-05-08T15:36:35.165Z,5.10
2023-05-08T15:39:01.957Z,4.22
2023-05-08T15:41:28.345Z,4.88
2023-05-08T15:43:54.724Z,4.40
2023-05-08T15:46:21.207Z,3.60
2023-05-08T15:48:48.422Z,3.65
2023-05-08T15:51:14.948Z,3.80
2023-05-08T15:53:41.459Z,5.55
2023-05-08T15:56:07.851Z,4.10
2023-05-08T15:58:36.532Z,4.25
2023-05-08T16:01:04.688Z,4.15
2023-05-08T16:03:32.050Z,5.85
2023-05-08T16:05:58.527Z,4.47
2023-05-08T16:08:24.992Z,5.00
2023-05-08T16:10:54.172Z,4.28
2023-05-08T16:13:20.792Z,3.83
2023-05-08T16:15:47.493Z,2.72
2023-05-08T16:18:13.945Z,3.80
2023-05-08T16:20:41.646Z,4.22
2023-05-08T16:23:08.754Z,4.13
2023-05-08T16:25:35.213Z,2.35
2023-05-08T16:28:01.892Z,3.05
2023-05-08T16:30:28.649Z,3.08
2023-05-08T16:32:55.153Z,4.00
2023-05-08T16:35:22.846Z,3.72
2023-05-08T16:37:49.375Z,4.47
2023-05-08T16:40:16.029Z,3.88
2023-05-08T16:42:42.498Z,4.50
2023-05-08T16:45:09.299Z,3.67
2023-05-08T16:47:36.058Z,6.40
2023-05-08T16:50:04.902Z,4.15
2023-05-08T16:52:32.766Z,6.80
2023-05-08T16:54:59.297Z,3.55
2023-05-08T16:57:26.157Z,4.25
2023-05-08T16:59:52.802Z,4.93
2023-05-08T17:02:19.552Z,3.42
2023-05-08T17:04:47.236Z,3.92
2023-05-08T17:07:17.602Z,5.68
2023-05-08T17:09:44.521Z,5.72
2023-05-08T17:12:11.026Z,5.95
2023-05-08T17:14:39.811Z,4.38
2023-05-08T17:17:06.641Z,5.30
2023-05-08T17:19:33.788Z,5.03
2023-05-08T17:22:00.317Z,6.95
2023-05-08T17:24:27.021Z,5.65
2023-05-08T17:26:53.858Z,4.80
2023-05-08T17:29:20.239Z,6.55
2023-05-08T17:31:46.724Z,6.72
2023-05-08T17:34:13.253Z,5.35
2023-05-08T17:36:39.689Z,7.10
2023-05-08T17:39:06.292Z,6.93
2023-05-08T17:41:32.703Z,8.77
2023-05-08T17:43:59.115Z,8.40
2023-05-08T17:46:25.474Z,7.15
2023-05-08T17:48:52.300Z,6.32
2023-05-08T17:51:18.827Z,6.68
2023-05-08T17:53:45.233Z,6.22
2023-05-08T17:56:11.677Z,6.93
2023-05-08T17:58:38.083Z,7.22
2023-05-08T18:01:04.478Z,6.57
2023-05-08T18:03:31.763Z,5.40
2023-05-08T18:05:58.302Z,8.85
2023-05-08T18:08:24.786Z,7.15
2023-05-08T18:10:51.207Z,6.38
2023-05-08T18:13:17.710Z,5.45
2023-05-08T18:15:44.317Z,7.75
2023-05-08T18:18:11.088Z,7.10
2023-05-08T18:20:37.545Z,6.03
2023-05-08T18:23:04.007Z,6.95
2023-05-08T18:25:30.424Z,5.60
2023-05-08T18:27:58.782Z,7.13
2023-05-08T18:30:25.599Z,6.70
2023-05-08T18:32:53.151Z,7.00
2023-05-08T18:35:21.406Z,7.10
2023-05-08T18:37:47.838Z,7.47
2023-05-08T18:40:14.552Z,7.43
2023-05-08T18:42:41.124Z,6.97
2023-05-08T18:45:08.350Z,7.68
2023-05-08T18:47:34.876Z,8.85
2023-05-08T18:50:01.743Z,8.45
2023-05-08T18:52:28.134Z,6.50
2023-05-08T18:54:54.514Z,7.43
2023-05-08T18:57:20.986Z,8.70
2023-05-08T18:59:47.449Z,7.60
2023-05-08T19:02:14.364Z,9.68
2023-05-08T19:04:40.782Z,6.68
2023-05-08T19:07:07.171Z,7.55
2023-05-08T19:09:33.888Z,8.57
2023-05-08T19:12:00.416Z,7.57
2023-05-08T19:14:26.918Z,7.70
2023-05-08T19:16:53.643Z,9.95
2023-05-08T19:19:21.022Z,7.45
2023-05-08T19:21:47.514Z,11.18
2023-05-08T19:24:16.168Z,8.35
2023-05-08T19:26:42.621Z,8.48
2023-05-08T19:29:09.028Z,7.90
2023-05-08T19:31:35.527Z,7.35
2023-05-08T19:34:02.068Z,9.45
2023-05-08T19:36:29.019Z,8.40
2023-05-08T19:38:55.700Z,9.13
2023-05-08T19:41:22.112Z,7.60
2023-05-08T19:43:48.502Z,8.65
2023-05-08T19:46:15.003Z,7.53
2023-05-08T19:48:41.455Z,6.78
2023-05-08T19:51:09.188Z,7.80
2023-05-08T19:53:35.773Z,9.13
2023-05-08T19:56:02.284Z,8.70
2023-05-08T19:58:28.837Z,8.55
2023-05-08T20:00:55.216Z,7.75
2023-05-08T20:03:21.746Z,10.57
2023-05-08T20:05:48.263Z,7.10
2023-05-08T20:08:14.743Z,8.55
2023-05-08T20:10:41.304Z,7.65
2023-05-08T20:13:07.768Z,7.47
2023-05-08T20:15:34.340Z,9.23
2023-05-08T20:18:00.841Z,8.27
2023-05-08T20:20:29.225Z,7.72
2023-05-08T20:22:56.145Z,7.22
2023-05-08T20:25:22.895Z,8.00
2023-05-08T20:27:49.481Z,7.10
2023-05-08T20:30:16.312Z,6.80
2023-05-08T20:32:42.891Z,9.48
2023-05-08T20:35:09.370Z,7.63
2023-05-08T20:37:42.957Z,8.07
2023-05-08T20:40:10.270Z,10.93
2023-05-08T20:42:36.710Z,7.15
2023-05-08T20:45:03.633Z,8.35
2023-05-08T20:47:30.065Z,9.18
2023-05-08T20:49:56.598Z,8.85
2023-05-08T20:52:23.044Z,8.32
2023-05-08T20:54:50.334Z,9.93
2023-05-08T20:57:18.213Z,7.45
2023-05-08T20:59:47.202Z,8.13
2023-05-08T21:02:13.829Z,7.07
2023-05-08T21:04:40.352Z,8.90
2023-05-08T21:07:06.791Z,7.82
2023-05-08T21:09:33.207Z,7.25
2023-05-08T21:12:00.541Z,5.93
2023-05-08T21:14:26.938Z,6.28
2023-05-08T21:16:53.937Z,6.13
2023-05-08T21:19:20.882Z,6.25
2023-05-08T21:21:47.594Z,6.63
2023-05-08T21:24:14.034Z,6.28
2023-05-08T21:26:40.557Z,5.97
2023-05-08T21:29:07.076Z,5.65
2023-05-08T21:31:36.598Z,6.75
2023-05-08T21:34:03.659Z,7.47
2023-05-08T21:36:30.168Z,6.78
2023-05-08T21:38:56.526Z,7.15
2023-05-08T21:41:22.906Z,7.82
2023-05-08T21:43:49.299Z,9.55
2023-05-08T21:46:16.230Z,7.30
2023-05-08T21:48:42.641Z,5.15
2023-05-08T21:51:09.233Z,7.35
2023-05-08T21:53:35.624Z,8.75
2023-05-08T21:56:02.011Z,6.22
2023-05-08T21:58:28.422Z,7.70
2023-05-08T22:00:56.331Z,8.85
2023-05-08T22:03:25.403Z,8.15
2023-05-08T22:05:51.907Z,9.15
2023-05-08T22:08:18.285Z,8.30
2023-05-08T22:10:44.794Z,7.75
2023-05-08T22:13:12.361Z,8.00
2023-05-08T22:15:38.768Z,8.48
2023-05-08T22:18:05.563Z,7.95
2023-05-08T22:20:33.211Z,8.75
2023-05-08T22:22:59.690Z,7.63
2023-05-08T22:25:26.607Z,7.68
2023-05-08T22:27:53.144Z,8.55
2023-05-08T22:30:19.694Z,8.90
2023-05-08T22:32:53.089Z,7.32
2023-05-08T22:35:24.411Z,8.85
2023-05-08T22:37:52.282Z,7.85
2023-05-08T22:40:18.861Z,6.80
2023-05-08T22:42:46.050Z,6.75
2023-05-08T22:45:13.151Z,6.95
2023-05-08T22:47:40.812Z,8.63
2023-05-08T22:50:09.091Z,9.23
2023-05-08T22:52:36.110Z,6.80
2023-05-08T22:55:04.680Z,9.00
2023-05-08T22:57:31.303Z,11.02
2023-05-08T22:59:57.915Z,9.38
2023-05-08T23:02:24.354Z,8.82
2023-05-08T23:04:50.952Z,8.70
2023-05-08T23:07:17.388Z,7.75
2023-05-08T23:09:43.748Z,11.02
2023-05-08T23:12:10.201Z,9.45
2023-05-08T23:14:36.605Z,11.30
2023-05-08T23:17:03.567Z,9.68
2023-05-08T23:19:30.096Z,10.07
2023-05-08T23:21:56.575Z,9.60
2023-05-08T23:24:23.218Z,9.25
2023-05-08T23:26:49.705Z,8.57
2023-05-08T23:29:16.110Z,11.43
2023-05-08T23:31:42.528Z,9.32
2023-05-08T23:34:09.127Z,10.60
2023-05-08T23:36:35.808Z,11.75
2023-05-08T23:39:02.366Z,8.25
2023-05-08T23:41:28.748Z,8.48
2023-05-08T23:43:55.914Z,10.00
2023-05-08T23:46:22.403Z,10.93
2023-05-08T23:48:48.817Z,12.10
2023-05-08T23:51:15.288Z,9.38
2023-05-08T23:53:42.199Z,10.70
2023-05-08T23:56:08.771Z,10.60
2023-05-08T23:58:35.160Z,10.07
